sensor_id;sensor_type;location;lat;lon;timestamp;P1;durP1;ratioP1;P2;durP2;ratioP2
8480;SDS011;4277;51.354;6.740;2023-09-19T00:00:36;7.30;;;2.10;;
8480;SDS011;4277;51.354;6.740;2023-09-19T00:03:02;8.60;;;2.43;;
8480;SDS011;4277;51.354;6.740;2023-09-19T00:05:29;10.17;;;2.40;;
8480;SDS011;4277;51.354;6.740;2023-09-19T00:07:56;7.33;;;2.50;;
8480;SDS011;4277;51.354;6.740;2023-09-19T00:10:26;8.97;;;2.30;;
8480;SDS011;4277;51.354;6.740;2023-09-19T00:12:56;6.13;;;2.17;;
8480;SDS011;4277;51.354;6.740;2023-09-19T00:15:23;5.90;;;2.43;;
8480;SDS011;4277;51.354;6.740;2023-09-19T00:17:49;7.20;;;2.20;;
8480;SDS011;4277;51.354;6.740;2023-09-19T00:20:17;8.40;;;2.60;;
8480;SDS011;4277;51.354;6.740;2023-09-19T00:22:43;7.77;;;2.60;;
8480;SDS011;4277;51.354;6.740;2023-09-19T00:25:10;8.83;;;2.30;;
8480;SDS011;4277;51.354;6.740;2023-09-19T00:27:39;9.20;;;2.40;;
8480;SDS011;4277;51.354;6.740;2023-09-19T00:30:09;9.10;;;2.57;;
8480;SDS011;4277;51.354;6.740;2023-09-19T00:32:44;5.47;;;1.93;;
8480;SDS011;4277;51.354;6.740;2023-09-19T00:35:12;8.13;;;2.63;;
8480;SDS011;4277;51.354;6.740;2023-09-19T00:37:39;10.77;;;2.73;;
8480;SDS011;4277;51.354;6.740;2023-09-19T00:40:05;8.13;;;2.40;;
8480;SDS011;4277;51.354;6.740;2023-09-19T00:42:33;10.93;;;2.90;;
8480;SDS011;4277;51.354;6.740;2023-09-19T00:45:02;7.70;;;2.47;;
8480;SDS011;4277;51.354;6.740;2023-09-19T00:47:28;7.83;;;2.30;;
8480;SDS011;4277;51.354;6.740;2023-09-19T00:49:55;9.80;;;2.13;;
8480;SDS011;4277;51.354;6.740;2023-09-19T00:52:21;9.67;;;2.20;;
8480;SDS011;4277;51.354;6.740;2023-09-19T00:54:49;8.50;;;2.57;;
8480;SDS011;4277;51.354;6.740;2023-09-19T00:57:15;5.43;;;2.10;;
8480;SDS011;4277;51.354;6.740;2023-09-19T00:59:42;8.13;;;2.60;;
8480;SDS011;4277;51.354;6.740;2023-09-19T01:02:08;10.07;;;2.27;;
8480;SDS011;4277;51.354;6.740;2023-09-19T01:04:34;12.30;;;2.97;;
8480;SDS011;4277;51.354;6.740;2023-09-19T01:07:00;10.47;;;2.80;;
8480;SDS011;4277;51.354;6.740;2023-09-19T01:09:26;9.23;;;2.20;;
8480;SDS011;4277;51.354;6.740;2023-09-19T01:11:53;7.80;;;2.30;;
8480;SDS011;4277;51.354;6.740;2023-09-19T01:14:34;9.77;;;2.60;;
8480;SDS011;4277;51.354;6.740;2023-09-19T01:17:05;14.93;;;2.70;;
8480;SDS011;4277;51.354;6.740;2023-09-19T01:22:07;8.20;;;2.30;;
8480;SDS011;4277;51.354;6.740;2023-09-19T01:29:45;9.20;;;2.57;;
8480;SDS011;4277;51.354;6.740;2023-09-19T01:32:13;10.37;;;2.30;;
8480;SDS011;4277;51.354;6.740;2023-09-19T01:37:12;7.53;;;2.37;;
8480;SDS011;4277;51.354;6.740;2023-09-19T01:39:39;14.23;;;2.90;;
8480;SDS011;4277;51.354;6.740;2023-09-19T01:44:59;10.93;;;2.50;;
8480;SDS011;4277;51.354;6.740;2023-09-19T01:50:00;11.47;;;2.30;;
8480;SDS011;4277;51.354;6.740;2023-09-19T01:52:28;12.47;;;2.80;;
8480;SDS011;4277;51.354;6.740;2023-09-19T01:54:56;10.60;;;2.50;;
8480;SDS011;4277;51.354;6.740;2023-09-19T01:57:27;6.37;;;2.23;;
8480;SDS011;4277;51.354;6.740;2023-09-19T01:59:57;9.90;;;2.20;;
8480;SDS011;4277;51.354;6.740;2023-09-19T02:02:25;8.43;;;2.43;;
8480;SDS011;4277;51.354;6.740;2023-09-19T02:04:51;10.23;;;2.50;;
8480;SDS011;4277;51.354;6.740;2023-09-19T02:07:17;7.63;;;2.27;;
8480;SDS011;4277;51.354;6.740;2023-09-19T02:09:43;9.63;;;2.30;;
8480;SDS011;4277;51.354;6.740;2023-09-19T02:12:09;8.53;;;2.50;;
8480;SDS011;4277;51.354;6.740;2023-09-19T02:14:35;11.33;;;2.80;;
8480;SDS011;4277;51.354;6.740;2023-09-19T02:17:02;10.70;;;2.47;;
8480;SDS011;4277;51.354;6.740;2023-09-19T02:19:32;9.73;;;2.67;;
8480;SDS011;4277;51.354;6.740;2023-09-19T02:21:58;11.07;;;2.57;;
8480;SDS011;4277;51.354;6.740;2023-09-19T02:24:24;10.10;;;2.10;;
8480;SDS011;4277;51.354;6.740;2023-09-19T02:26:51;7.67;;;2.33;;
8480;SDS011;4277;51.354;6.740;2023-09-19T02:29:17;8.67;;;2.23;;
8480;SDS011;4277;51.354;6.740;2023-09-19T02:31:43;10.90;;;2.33;;
8480;SDS011;4277;51.354;6.740;2023-09-19T02:34:11;7.20;;;2.23;;
8480;SDS011;4277;51.354;6.740;2023-09-19T02:36:37;9.13;;;2.23;;
8480;SDS011;4277;51.354;6.740;2023-09-19T02:39:03;9.87;;;2.00;;
8480;SDS011;4277;51.354;6.740;2023-09-19T02:41:31;5.17;;;1.90;;
8480;SDS011;4277;51.354;6.740;2023-09-19T02:43:58;9.43;;;2.20;;
8480;SDS011;4277;51.354;6.740;2023-09-19T02:46:24;7.60;;;2.03;;
8480;SDS011;4277;51.354;6.740;2023-09-19T02:48:50;7.27;;;2.40;;
8480;SDS011;4277;51.354;6.740;2023-09-19T02:51:16;6.13;;;2.27;;
8480;SDS011;4277;51.354;6.740;2023-09-19T02:53:42;9.80;;;2.43;;
8480;SDS011;4277;51.354;6.740;2023-09-19T02:56:08;8.67;;;2.30;;
8480;SDS011;4277;51.354;6.740;2023-09-19T02:58:36;10.40;;;2.30;;
8480;SDS011;4277;51.354;6.740;2023-09-19T03:01:09;9.67;;;2.60;;
8480;SDS011;4277;51.354;6.740;2023-09-19T03:03:38;8.13;;;2.47;;
8480;SDS011;4277;51.354;6.740;2023-09-19T03:06:05;9.90;;;2.37;;
8480;SDS011;4277;51.354;6.740;2023-09-19T03:08:34;11.00;;;2.03;;
8480;SDS011;4277;51.354;6.740;2023-09-19T03:11:03;8.70;;;2.50;;
8480;SDS011;4277;51.354;6.740;2023-09-19T03:13:30;8.77;;;2.60;;
8480;SDS011;4277;51.354;6.740;2023-09-19T03:15:56;12.63;;;2.87;;
8480;SDS011;4277;51.354;6.740;2023-09-19T03:18:23;9.03;;;2.30;;
8480;SDS011;4277;51.354;6.740;2023-09-19T03:20:54;8.47;;;2.20;;
8480;SDS011;4277;51.354;6.740;2023-09-19T03:23:20;6.67;;;2.30;;
8480;SDS011;4277;51.354;6.740;2023-09-19T03:25:46;9.60;;;2.10;;
8480;SDS011;4277;51.354;6.740;2023-09-19T03:28:13;7.13;;;2.13;;
8480;SDS011;4277;51.354;6.740;2023-09-19T03:30:40;9.23;;;2.20;;
8480;SDS011;4277;51.354;6.740;2023-09-19T03:33:07;9.20;;;2.40;;
8480;SDS011;4277;51.354;6.740;2023-09-19T03:35:33;9.83;;;2.53;;
8480;SDS011;4277;51.354;6.740;2023-09-19T03:37:59;8.57;;;2.20;;
8480;SDS011;4277;51.354;6.740;2023-09-19T03:40:25;8.00;;;2.50;;
8480;SDS011;4277;51.354;6.740;2023-09-19T03:42:51;10.10;;;2.50;;
8480;SDS011;4277;51.354;6.740;2023-09-19T03:45:17;10.93;;;2.50;;
8480;SDS011;4277;51.354;6.740;2023-09-19T03:47:43;10.13;;;2.50;;
8480;SDS011;4277;51.354;6.740;2023-09-19T03:50:12;7.43;;;2.10;;
8480;SDS011;4277;51.354;6.740;2023-09-19T03:52:42;9.13;;;2.40;;
8480;SDS011;4277;51.354;6.740;2023-09-19T03:55:08;8.73;;;2.63;;
8480;SDS011;4277;51.354;6.740;2023-09-19T03:57:34;13.67;;;2.53;;
8480;SDS011;4277;51.354;6.740;2023-09-19T04:00:01;9.30;;;2.60;;
8480;SDS011;4277;51.354;6.740;2023-09-19T04:02:27;7.67;;;2.03;;
8480;SDS011;4277;51.354;6.740;2023-09-19T04:04:58;10.13;;;2.33;;
8480;SDS011;4277;51.354;6.740;2023-09-19T04:07:24;11.00;;;2.20;;
8480;SDS011;4277;51.354;6.740;2023-09-19T04:09:53;7.20;;;1.93;;
8480;SDS011;4277;51.354;6.740;2023-09-19T04:12:20;7.73;;;2.40;;
8480;SDS011;4277;51.354;6.740;2023-09-19T04:14:46;10.20;;;2.57;;
8480;SDS011;4277;51.354;6.740;2023-09-19T04:17:12;8.97;;;2.40;;
8480;SDS011;4277;51.354;6.740;2023-09-19T04:19:38;7.97;;;1.97;;
8480;SDS011;4277;51.354;6.740;2023-09-19T04:22:05;6.77;;;2.20;;
8480;SDS011;4277;51.354;6.740;2023-09-19T04:24:32;6.90;;;2.40;;
8480;SDS011;4277;51.354;6.740;2023-09-19T04:26:58;10.70;;;2.50;;
8480;SDS011;4277;51.354;6.740;2023-09-19T04:29:25;9.13;;;2.17;;
8480;SDS011;4277;51.354;6.740;2023-09-19T04:31:54;10.07;;;2.60;;
8480;SDS011;4277;51.354;6.740;2023-09-19T04:34:21;9.00;;;2.50;;
8480;SDS011;4277;51.354;6.740;2023-09-19T04:36:48;8.53;;;2.47;;
8480;SDS011;4277;51.354;6.740;2023-09-19T04:39:14;8.17;;;2.53;;
8480;SDS011;4277;51.354;6.740;2023-09-19T04:41:41;8.47;;;2.40;;
8480;SDS011;4277;51.354;6.740;2023-09-19T04:44:07;14.57;;;2.47;;
8480;SDS011;4277;51.354;6.740;2023-09-19T04:46:34;7.10;;;2.10;;
8480;SDS011;4277;51.354;6.740;2023-09-19T04:49:00;9.33;;;2.30;;
8480;SDS011;4277;51.354;6.740;2023-09-19T04:51:27;8.37;;;2.10;;
8480;SDS011;4277;51.354;6.740;2023-09-19T04:53:57;8.93;;;2.63;;
8480;SDS011;4277;51.354;6.740;2023-09-19T04:56:23;9.03;;;2.50;;
8480;SDS011;4277;51.354;6.740;2023-09-19T04:58:49;9.93;;;2.60;;
8480;SDS011;4277;51.354;6.740;2023-09-19T05:01:15;8.80;;;2.40;;
8480;SDS011;4277;51.354;6.740;2023-09-19T05:03:41;9.33;;;2.40;;
8480;SDS011;4277;51.354;6.740;2023-09-19T05:06:07;12.00;;;2.40;;
8480;SDS011;4277;51.354;6.740;2023-09-19T05:08:33;8.73;;;2.50;;
8480;SDS011;4277;51.354;6.740;2023-09-19T05:11:01;10.10;;;2.60;;
8480;SDS011;4277;51.354;6.740;2023-09-19T05:13:27;9.57;;;2.60;;
8480;SDS011;4277;51.354;6.740;2023-09-19T05:15:53;12.53;;;2.83;;
8480;SDS011;4277;51.354;6.740;2023-09-19T05:18:19;9.43;;;2.40;;
8480;SDS011;4277;51.354;6.740;2023-09-19T05:20:46;8.70;;;2.17;;
8480;SDS011;4277;51.354;6.740;2023-09-19T05:23:14;7.77;;;2.00;;
8480;SDS011;4277;51.354;6.740;2023-09-19T05:25:40;10.10;;;2.63;;
8480;SDS011;4277;51.354;6.740;2023-09-19T05:28:08;10.63;;;2.47;;
8480;SDS011;4277;51.354;6.740;2023-09-19T05:30:37;14.70;;;2.90;;
8480;SDS011;4277;51.354;6.740;2023-09-19T05:33:03;8.53;;;2.27;;
8480;SDS011;4277;51.354;6.740;2023-09-19T05:35:30;9.43;;;2.43;;
8480;SDS011;4277;51.354;6.740;2023-09-19T05:37:56;11.43;;;2.33;;
8480;SDS011;4277;51.354;6.740;2023-09-19T05:40:23;11.53;;;2.57;;
8480;SDS011;4277;51.354;6.740;2023-09-19T05:42:49;8.53;;;2.53;;
8480;SDS011;4277;51.354;6.740;2023-09-19T05:45:15;10.50;;;2.50;;
8480;SDS011;4277;51.354;6.740;2023-09-19T05:47:47;13.27;;;2.70;;
8480;SDS011;4277;51.354;6.740;2023-09-19T05:50:13;13.27;;;2.60;;
8480;SDS011;4277;51.354;6.740;2023-09-19T05:52:41;9.23;;;2.40;;
8480;SDS011;4277;51.354;6.740;2023-09-19T05:55:08;14.70;;;2.93;;
8480;SDS011;4277;51.354;6.740;2023-09-19T05:57:34;10.10;;;2.67;;
8480;SDS011;4277;51.354;6.740;2023-09-19T06:00:00;9.33;;;2.50;;
8480;SDS011;4277;51.354;6.740;2023-09-19T06:02:26;13.10;;;2.50;;
8480;SDS011;4277;51.354;6.740;2023-09-19T06:04:54;13.47;;;3.10;;
8480;SDS011;4277;51.354;6.740;2023-09-19T06:07:21;6.53;;;2.20;;
8480;SDS011;4277;51.354;6.740;2023-09-19T06:09:53;9.53;;;2.20;;
8480;SDS011;4277;51.354;6.740;2023-09-19T06:12:19;8.53;;;2.07;;
8480;SDS011;4277;51.354;6.740;2023-09-19T06:14:45;7.63;;;2.33;;
8480;SDS011;4277;51.354;6.740;2023-09-19T06:17:11;8.40;;;2.30;;
8480;SDS011;4277;51.354;6.740;2023-09-19T06:19:37;10.87;;;2.70;;
8480;SDS011;4277;51.354;6.740;2023-09-19T06:22:03;8.00;;;2.47;;
8480;SDS011;4277;51.354;6.740;2023-09-19T06:24:29;8.67;;;2.50;;
8480;SDS011;4277;51.354;6.740;2023-09-19T06:26:55;9.77;;;2.40;;
8480;SDS011;4277;51.354;6.740;2023-09-19T06:29:22;7.20;;;2.20;;
8480;SDS011;4277;51.354;6.740;2023-09-19T06:31:48;7.87;;;2.30;;
8480;SDS011;4277;51.354;6.740;2023-09-19T06:34:14;7.73;;;2.30;;
8480;SDS011;4277;51.354;6.740;2023-09-19T06:36:41;9.90;;;2.80;;
8480;SDS011;4277;51.354;6.740;2023-09-19T06:39:08;12.43;;;2.10;;
8480;SDS011;4277;51.354;6.740;2023-09-19T06:41:36;10.07;;;2.23;;
8480;SDS011;4277;51.354;6.740;2023-09-19T06:44:03;11.17;;;2.80;;
8480;SDS011;4277;51.354;6.740;2023-09-19T06:46:30;7.17;;;2.13;;
8480;SDS011;4277;51.354;6.740;2023-09-19T06:48:59;7.00;;;2.40;;
8480;SDS011;4277;51.354;6.740;2023-09-19T06:51:25;7.10;;;2.17;;
8480;SDS011;4277;51.354;6.740;2023-09-19T06:53:51;9.17;;;2.27;;
8480;SDS011;4277;51.354;6.740;2023-09-19T06:56:19;9.43;;;2.50;;
8480;SDS011;4277;51.354;6.740;2023-09-19T06:58:48;7.47;;;2.47;;
8480;SDS011;4277;51.354;6.740;2023-09-19T07:01:14;7.40;;;2.27;;
8480;SDS011;4277;51.354;6.740;2023-09-19T07:03:40;10.27;;;2.20;;
8480;SDS011;4277;51.354;6.740;2023-09-19T07:06:06;11.13;;;2.67;;
8480;SDS011;4277;51.354;6.740;2023-09-19T07:08:33;10.37;;;2.50;;
8480;SDS011;4277;51.354;6.740;2023-09-19T07:10:59;10.27;;;2.67;;
8480;SDS011;4277;51.354;6.740;2023-09-19T07:13:25;7.33;;;2.10;;
8480;SDS011;4277;51.354;6.740;2023-09-19T07:15:52;11.80;;;2.70;;
8480;SDS011;4277;51.354;6.740;2023-09-19T07:18:19;10.00;;;2.50;;
8480;SDS011;4277;51.354;6.740;2023-09-19T07:20:45;9.73;;;2.20;;
8480;SDS011;4277;51.354;6.740;2023-09-19T07:23:15;10.50;;;2.20;;
8480;SDS011;4277;51.354;6.740;2023-09-19T07:25:43;12.67;;;2.67;;
8480;SDS011;4277;51.354;6.740;2023-09-19T07:28:09;8.23;;;2.17;;
8480;SDS011;4277;51.354;6.740;2023-09-19T07:30:38;12.93;;;3.00;;
8480;SDS011;4277;51.354;6.740;2023-09-19T07:33:05;10.83;;;2.40;;
8480;SDS011;4277;51.354;6.740;2023-09-19T07:35:32;10.33;;;2.47;;
8480;SDS011;4277;51.354;6.740;2023-09-19T07:37:58;11.00;;;2.60;;
8480;SDS011;4277;51.354;6.740;2023-09-19T07:40:26;11.30;;;2.60;;
8480;SDS011;4277;51.354;6.740;2023-09-19T07:42:54;13.60;;;2.60;;
8480;SDS011;4277;51.354;6.740;2023-09-19T07:45:19;7.60;;;2.20;;
8480;SDS011;4277;51.354;6.740;2023-09-19T07:50:12;9.43;;;2.13;;
8480;SDS011;4277;51.354;6.740;2023-09-19T07:52:38;7.83;;;2.20;;
8480;SDS011;4277;51.354;6.740;2023-09-19T07:55:07;7.20;;;2.20;;
8480;SDS011;4277;51.354;6.740;2023-09-19T07:57:34;7.30;;;2.30;;
8480;SDS011;4277;51.354;6.740;2023-09-19T08:00:01;10.03;;;2.00;;
8480;SDS011;4277;51.354;6.740;2023-09-19T08:02:29;10.57;;;2.53;;
8480;SDS011;4277;51.354;6.740;2023-09-19T08:04:55;7.30;;;2.17;;
8480;SDS011;4277;51.354;6.740;2023-09-19T08:07:23;10.07;;;2.43;;
8480;SDS011;4277;51.354;6.740;2023-09-19T08:09:49;13.47;;;2.63;;
8480;SDS011;4277;51.354;6.740;2023-09-19T08:12:15;9.20;;;2.50;;
8480;SDS011;4277;51.354;6.740;2023-09-19T08:14:41;11.13;;;2.20;;
8480;SDS011;4277;51.354;6.740;2023-09-19T08:17:08;9.60;;;2.40;;
8480;SDS011;4277;51.354;6.740;2023-09-19T08:19:34;8.63;;;2.42;;
8480;SDS011;4277;51.354;6.740;2023-09-19T08:22:01;9.00;;;2.47;;
8480;SDS011;4277;51.354;6.740;2023-09-19T08:24:28;11.02;;;2.53;;
8480;SDS011;4277;51.354;6.740;2023-09-19T08:26:54;8.35;;;2.30;;
8480;SDS011;4277;51.354;6.740;2023-09-19T08:29:21;13.68;;;2.65;;
8480;SDS011;4277;51.354;6.740;2023-09-19T08:31:52;10.55;;;2.78;;
8480;SDS011;4277;51.354;6.740;2023-09-19T08:34:18;7.80;;;2.30;;
8480;SDS011;4277;51.354;6.740;2023-09-19T08:36:44;9.20;;;2.10;;
8480;SDS011;4277;51.354;6.740;2023-09-19T08:39:13;9.23;;;2.30;;
8480;SDS011;4277;51.354;6.740;2023-09-19T08:41:39;8.80;;;2.30;;
8480;SDS011;4277;51.354;6.740;2023-09-19T08:44:05;8.35;;;1.85;;
8480;SDS011;4277;51.354;6.740;2023-09-19T08:46:31;8.13;;;2.00;;
8480;SDS011;4277;51.354;6.740;2023-09-19T08:49:04;11.13;;;2.70;;
8480;SDS011;4277;51.354;6.740;2023-09-19T08:51:34;11.80;;;2.30;;
8480;SDS011;4277;51.354;6.740;2023-09-19T08:54:06;8.27;;;2.38;;
8480;SDS011;4277;51.354;6.740;2023-09-19T08:56:33;10.43;;;2.28;;
8480;SDS011;4277;51.354;6.740;2023-09-19T08:59:00;8.45;;;2.20;;
8480;SDS011;4277;51.354;6.740;2023-09-19T09:01:27;13.32;;;3.03;;
8480;SDS011;4277;51.354;6.740;2023-09-19T09:03:54;7.20;;;2.55;;
8480;SDS011;4277;51.354;6.740;2023-09-19T09:06:21;6.53;;;2.15;;
8480;SDS011;4277;51.354;6.740;2023-09-19T09:08:48;9.93;;;2.60;;
8480;SDS011;4277;51.354;6.740;2023-09-19T09:11:15;8.90;;;2.22;;
8480;SDS011;4277;51.354;6.740;2023-09-19T09:13:43;10.38;;;2.63;;
8480;SDS011;4277;51.354;6.740;2023-09-19T09:16:09;9.95;;;2.53;;
8480;SDS011;4277;51.354;6.740;2023-09-19T09:18:35;8.15;;;2.33;;
8480;SDS011;4277;51.354;6.740;2023-09-19T09:21:02;8.10;;;2.40;;
8480;SDS011;4277;51.354;6.740;2023-09-19T09:23:29;10.70;;;2.45;;
8480;SDS011;4277;51.354;6.740;2023-09-19T09:25:57;12.80;;;2.33;;
8480;SDS011;4277;51.354;6.740;2023-09-19T09:28:27;9.73;;;2.33;;
8480;SDS011;4277;51.354;6.740;2023-09-19T09:30:54;9.80;;;2.22;;
8480;SDS011;4277;51.354;6.740;2023-09-19T09:33:20;9.60;;;2.45;;
8480;SDS011;4277;51.354;6.740;2023-09-19T09:38:17;8.45;;;2.30;;
8480;SDS011;4277;51.354;6.740;2023-09-19T09:40:50;7.25;;;2.15;;
8480;SDS011;4277;51.354;6.740;2023-09-19T09:43:33;8.70;;;2.03;;
8480;SDS011;4277;51.354;6.740;2023-09-19T09:46:13;9.52;;;2.40;;
8480;SDS011;4277;51.354;6.740;2023-09-19T09:48:45;7.93;;;2.33;;
8480;SDS011;4277;51.354;6.740;2023-09-19T09:51:31;7.88;;;2.33;;
8480;SDS011;4277;51.354;6.740;2023-09-19T09:54:16;7.60;;;2.30;;
8480;SDS011;4277;51.354;6.740;2023-09-19T09:56:55;8.13;;;2.10;;
8480;SDS011;4277;51.354;6.740;2023-09-19T09:59:39;8.60;;;2.45;;
8480;SDS011;4277;51.354;6.740;2023-09-19T10:02:11;8.38;;;1.90;;
8480;SDS011;4277;51.354;6.740;2023-09-19T10:04:38;11.27;;;2.55;;
8480;SDS011;4277;51.354;6.740;2023-09-19T10:07:26;8.52;;;2.35;;
8480;SDS011;4277;51.354;6.740;2023-09-19T10:09:57;8.43;;;2.40;;
8480;SDS011;4277;51.354;6.740;2023-09-19T10:12:30;6.57;;;2.20;;
8480;SDS011;4277;51.354;6.740;2023-09-19T10:14:57;6.35;;;2.03;;
8480;SDS011;4277;51.354;6.740;2023-09-19T10:17:25;9.13;;;2.78;;
8480;SDS011;4277;51.354;6.740;2023-09-19T10:19:56;7.82;;;2.25;;
8480;SDS011;4277;51.354;6.740;2023-09-19T10:22:23;9.43;;;2.20;;
8480;SDS011;4277;51.354;6.740;2023-09-19T10:24:51;8.00;;;2.17;;
8480;SDS011;4277;51.354;6.740;2023-09-19T10:27:19;8.63;;;2.35;;
8480;SDS011;4277;51.354;6.740;2023-09-19T10:29:48;8.15;;;2.30;;
8480;SDS011;4277;51.354;6.740;2023-09-19T10:32:19;7.22;;;2.40;;
8480;SDS011;4277;51.354;6.740;2023-09-19T10:34:48;9.20;;;2.35;;
8480;SDS011;4277;51.354;6.740;2023-09-19T10:37:16;6.68;;;2.10;;
8480;SDS011;4277;51.354;6.740;2023-09-19T10:39:48;9.05;;;2.22;;
8480;SDS011;4277;51.354;6.740;2023-09-19T10:42:18;7.97;;;2.35;;
8480;SDS011;4277;51.354;6.740;2023-09-19T10:44:45;7.47;;;2.25;;
8480;SDS011;4277;51.354;6.740;2023-09-19T10:47:11;7.93;;;2.15;;
8480;SDS011;4277;51.354;6.740;2023-09-19T10:49:44;9.45;;;2.40;;
8480;SDS011;4277;51.354;6.740;2023-09-19T10:52:14;4.90;;;2.08;;
8480;SDS011;4277;51.354;6.740;2023-09-19T10:54:45;10.05;;;2.67;;
8480;SDS011;4277;51.354;6.740;2023-09-19T10:57:14;7.82;;;2.20;;
8480;SDS011;4277;51.354;6.740;2023-09-19T11:00:03;8.57;;;2.38;;
8480;SDS011;4277;51.354;6.740;2023-09-19T11:05:32;7.78;;;2.10;;
8480;SDS011;4277;51.354;6.740;2023-09-19T11:07:59;5.78;;;1.67;;
8480;SDS011;4277;51.354;6.740;2023-09-19T11:13:23;5.40;;;2.03;;
8480;SDS011;4277;51.354;6.740;2023-09-19T11:26:47;8.00;;;2.28;;
8480;SDS011;4277;51.354;6.740;2023-09-19T11:29:26;8.40;;;2.30;;
8480;SDS011;4277;51.354;6.740;2023-09-19T11:31:53;5.35;;;2.05;;
8480;SDS011;4277;51.354;6.740;2023-09-19T11:39:39;8.05;;;2.10;;
8480;SDS011;4277;51.354;6.740;2023-09-19T11:44:53;5.78;;;1.92;;
8480;SDS011;4277;51.354;6.740;2023-09-19T11:47:21;6.43;;;2.08;;
8480;SDS011;4277;51.354;6.740;2023-09-19T11:49:50;6.35;;;2.08;;
8480;SDS011;4277;51.354;6.740;2023-09-19T11:52:21;6.10;;;2.03;;
8480;SDS011;4277;51.354;6.740;2023-09-19T11:54:54;5.95;;;2.20;;
8480;SDS011;4277;51.354;6.740;2023-09-19T11:57:22;5.53;;;2.20;;
8480;SDS011;4277;51.354;6.740;2023-09-19T11:59:48;7.10;;;1.83;;
8480;SDS011;4277;51.354;6.740;2023-09-19T12:02:19;4.88;;;2.08;;
8480;SDS011;4277;51.354;6.740;2023-09-19T12:04:53;6.55;;;1.95;;
8480;SDS011;4277;51.354;6.740;2023-09-19T12:07:20;6.53;;;2.05;;
8480;SDS011;4277;51.354;6.740;2023-09-19T12:09:51;7.00;;;2.25;;
8480;SDS011;4277;51.354;6.740;2023-09-19T12:12:29;7.35;;;2.20;;
8480;SDS011;4277;51.354;6.740;2023-09-19T12:14:56;5.38;;;2.15;;
8480;SDS011;4277;51.354;6.740;2023-09-19T12:17:38;7.22;;;2.10;;
8480;SDS011;4277;51.354;6.740;2023-09-19T12:20:06;5.90;;;1.98;;
8480;SDS011;4277;51.354;6.740;2023-09-19T12:22:42;5.32;;;2.17;;
8480;SDS011;4277;51.354;6.740;2023-09-19T12:25:08;6.75;;;2.88;;
8480;SDS011;4277;51.354;6.740;2023-09-19T12:27:45;5.82;;;2.10;;
8480;SDS011;4277;51.354;6.740;2023-09-19T12:30:12;7.35;;;2.20;;
8480;SDS011;4277;51.354;6.740;2023-09-19T12:32:43;6.03;;;2.00;;
8480;SDS011;4277;51.354;6.740;2023-09-19T12:35:09;5.95;;;1.77;;
8480;SDS011;4277;51.354;6.740;2023-09-19T12:37:36;5.70;;;2.10;;
8480;SDS011;4277;51.354;6.740;2023-09-19T12:40:06;6.38;;;2.00;;
8480;SDS011;4277;51.354;6.740;2023-09-19T12:42:40;5.05;;;1.80;;
8480;SDS011;4277;51.354;6.740;2023-09-19T12:45:06;6.80;;;1.80;;
8480;SDS011;4277;51.354;6.740;2023-09-19T12:47:34;5.93;;;1.80;;
8480;SDS011;4277;51.354;6.740;2023-09-19T12:50:13;3.28;;;1.60;;
8480;SDS011;4277;51.354;6.740;2023-09-19T12:52:49;5.63;;;2.17;;
8480;SDS011;4277;51.354;6.740;2023-09-19T12:55:28;6.63;;;1.85;;
8480;SDS011;4277;51.354;6.740;2023-09-19T12:58:08;6.53;;;1.60;;
8480;SDS011;4277;51.354;6.740;2023-09-19T13:05:47;7.70;;;1.75;;
8480;SDS011;4277;51.354;6.740;2023-09-19T13:13:31;4.60;;;1.70;;
8480;SDS011;4277;51.354;6.740;2023-09-19T13:15:58;3.88;;;1.83;;
8480;SDS011;4277;51.354;6.740;2023-09-19T13:18:26;3.88;;;1.50;;
8480;SDS011;4277;51.354;6.740;2023-09-19T13:21:08;4.72;;;1.60;;
8480;SDS011;4277;51.354;6.740;2023-09-19T13:23:41;5.10;;;1.60;;
8480;SDS011;4277;51.354;6.740;2023-09-19T13:26:07;6.15;;;1.55;;
8480;SDS011;4277;51.354;6.740;2023-09-19T13:28:33;6.05;;;1.77;;
8480;SDS011;4277;51.354;6.740;2023-09-19T13:30:59;4.45;;;1.30;;
8480;SDS011;4277;51.354;6.740;2023-09-19T13:33:25;6.13;;;1.67;;
8480;SDS011;4277;51.354;6.740;2023-09-19T13:35:51;2.88;;;1.23;;
8480;SDS011;4277;51.354;6.740;2023-09-19T13:38:18;5.10;;;1.60;;
8480;SDS011;4277;51.354;6.740;2023-09-19T13:40:47;5.30;;;1.33;;
8480;SDS011;4277;51.354;6.740;2023-09-19T13:43:13;2.75;;;1.23;;
8480;SDS011;4277;51.354;6.740;2023-09-19T13:45:40;3.53;;;1.45;;
8480;SDS011;4277;51.354;6.740;2023-09-19T13:48:09;3.45;;;1.27;;
8480;SDS011;4277;51.354;6.740;2023-09-19T13:50:38;5.50;;;1.30;;
8480;SDS011;4277;51.354;6.740;2023-09-19T13:53:07;6.03;;;1.25;;
8480;SDS011;4277;51.354;6.740;2023-09-19T13:55:34;3.70;;;1.27;;
8480;SDS011;4277;51.354;6.740;2023-09-19T13:58:00;2.83;;;1.30;;
8480;SDS011;4277;51.354;6.740;2023-09-19T14:00:26;3.92;;;1.35;;
8480;SDS011;4277;51.354;6.740;2023-09-19T14:02:53;4.82;;;1.38;;
8480;SDS011;4277;51.354;6.740;2023-09-19T14:05:19;3.70;;;1.08;;
8480;SDS011;4277;51.354;6.740;2023-09-19T14:07:45;2.30;;;1.10;;
8480;SDS011;4277;51.354;6.740;2023-09-19T14:10:11;4.22;;;1.30;;
8480;SDS011;4277;51.354;6.740;2023-09-19T14:12:38;4.68;;;1.30;;
8480;SDS011;4277;51.354;6.740;2023-09-19T14:15:10;4.30;;;1.17;;
8480;SDS011;4277;51.354;6.740;2023-09-19T14:17:37;4.28;;;1.00;;
8480;SDS011;4277;51.354;6.740;2023-09-19T14:20:03;3.50;;;1.10;;
8480;SDS011;4277;51.354;6.740;2023-09-19T14:22:31;2.22;;;1.10;;
8480;SDS011;4277;51.354;6.740;2023-09-19T14:24:58;3.47;;;0.88;;
8480;SDS011;4277;51.354;6.740;2023-09-19T14:27:24;5.05;;;1.08;;
8480;SDS011;4277;51.354;6.740;2023-09-19T14:29:50;2.75;;;0.98;;
8480;SDS011;4277;51.354;6.740;2023-09-19T14:32:16;2.42;;;0.80;;
8480;SDS011;4277;51.354;6.740;2023-09-19T14:34:42;4.38;;;1.10;;
8480;SDS011;4277;51.354;6.740;2023-09-19T14:37:09;2.50;;;1.02;;
8480;SDS011;4277;51.354;6.740;2023-09-19T14:39:36;3.33;;;1.00;;
8480;SDS011;4277;51.354;6.740;2023-09-19T14:42:04;6.50;;;1.02;;
8480;SDS011;4277;51.354;6.740;2023-09-19T14:44:30;3.35;;;1.00;;
8480;SDS011;4277;51.354;6.740;2023-09-19T14:46:56;2.45;;;1.00;;
8480;SDS011;4277;51.354;6.740;2023-09-19T14:49:23;4.88;;;1.13;;
8480;SDS011;4277;51.354;6.740;2023-09-19T14:51:50;3.38;;;0.90;;
8480;SDS011;4277;51.354;6.740;2023-09-19T14:54:17;2.33;;;1.08;;
8480;SDS011;4277;51.354;6.740;2023-09-19T14:56:43;2.45;;;0.85;;
8480;SDS011;4277;51.354;6.740;2023-09-19T14:59:10;1.77;;;0.77;;
8480;SDS011;4277;51.354;6.740;2023-09-19T15:01:36;3.10;;;0.65;;
8480;SDS011;4277;51.354;6.740;2023-09-19T15:04:03;3.28;;;1.10;;
8480;SDS011;4277;51.354;6.740;2023-09-19T15:06:29;2.55;;;0.80;;
8480;SDS011;4277;51.354;6.740;2023-09-19T15:08:55;4.40;;;0.90;;
8480;SDS011;4277;51.354;6.740;2023-09-19T15:11:22;2.20;;;1.00;;
8480;SDS011;4277;51.354;6.740;2023-09-19T15:13:50;2.65;;;0.93;;
8480;SDS011;4277;51.354;6.740;2023-09-19T15:16:16;2.97;;;1.08;;
8480;SDS011;4277;51.354;6.740;2023-09-19T15:18:44;3.67;;;1.20;;
8480;SDS011;4277;51.354;6.740;2023-09-19T15:21:12;1.55;;;1.00;;
8480;SDS011;4277;51.354;6.740;2023-09-19T15:23:42;2.20;;;1.10;;
8480;SDS011;4277;51.354;6.740;2023-09-19T15:26:09;3.60;;;1.00;;
8480;SDS011;4277;51.354;6.740;2023-09-19T15:28:42;3.40;;;0.90;;
8480;SDS011;4277;51.354;6.740;2023-09-19T15:31:09;3.70;;;0.90;;
8480;SDS011;4277;51.354;6.740;2023-09-19T15:33:35;2.20;;;0.90;;
8480;SDS011;4277;51.354;6.740;2023-09-19T15:36:09;1.63;;;0.85;;
8480;SDS011;4277;51.354;6.740;2023-09-19T15:41:21;2.45;;;0.88;;
8480;SDS011;4277;51.354;6.740;2023-09-19T15:43:47;2.63;;;1.00;;
8480;SDS011;4277;51.354;6.740;2023-09-19T15:46:13;3.38;;;0.98;;
8480;SDS011;4277;51.354;6.740;2023-09-19T15:48:40;3.83;;;1.00;;
8480;SDS011;4277;51.354;6.740;2023-09-19T15:51:06;3.65;;;0.93;;
8480;SDS011;4277;51.354;6.740;2023-09-19T15:53:41;3.75;;;1.08;;
8480;SDS011;4277;51.354;6.740;2023-09-19T15:56:09;3.33;;;0.82;;
8480;SDS011;4277;51.354;6.740;2023-09-19T15:58:35;2.20;;;0.80;;
8480;SDS011;4277;51.354;6.740;2023-09-19T16:01:07;2.28;;;0.77;;
8480;SDS011;4277;51.354;6.740;2023-09-19T16:03:36;2.40;;;1.00;;
8480;SDS011;4277;51.354;6.740;2023-09-19T16:06:09;2.83;;;0.95;;
8480;SDS011;4277;51.354;6.740;2023-09-19T16:08:38;3.17;;;0.90;;
8480;SDS011;4277;51.354;6.740;2023-09-19T16:11:04;4.88;;;1.23;;
8480;SDS011;4277;51.354;6.740;2023-09-19T16:13:31;3.25;;;0.88;;
8480;SDS011;4277;51.354;6.740;2023-09-19T16:15:57;2.28;;;1.08;;